sensor_id;sensor_type;location;lat;lon;timestamp;temperature;humidity
22173;DHT22;11252;50.596;17.648;2022-08-24T00:01:53;18.90;92.20
22173;DHT22;11252;50.596;17.648;2022-08-24T00:04:23;19.00;92.20
22173;DHT22;11252;50.596;17.648;2022-08-24T00:06:51;18.90;92.20
22173;DHT22;11252;50.596;17.648;2022-08-24T00:09:19;18.90;92.20
22173;DHT22;11252;50.596;17.648;2022-08-24T00:11:48;19.00;92.20
22173;DHT22;11252;50.596;17.648;2022-08-24T00:14:16;19.00;92.20
22173;DHT22;11252;50.596;17.648;2022-08-24T00:16:45;18.90;92.20
22173;DHT22;11252;50.596;17.648;2022-08-24T00:19:13;18.90;92.20
22173;DHT22;11252;50.596;17.648;2022-08-24T00:21:41;19.00;92.20
22173;DHT22;11252;50.596;17.648;2022-08-24T00:24:09;19.00;92.20
22173;DHT22;11252;50.596;17.648;2022-08-24T00:26:38;19.00;92.20
22173;DHT22;11252;50.596;17.648;2022-08-24T00:29:06;18.90;92.20
22173;DHT22;11252;50.596;17.648;2022-08-24T00:31:34;18.90;92.20
22173;DHT22;11252;50.596;17.648;2022-08-24T00:34:02;18.90;92.20
22173;DHT22;11252;50.596;17.648;2022-08-24T00:36:30;18.90;92.20
22173;DHT22;11252;50.596;17.648;2022-08-24T00:38:58;18.90;92.20
22173;DHT22;11252;50.596;17.648;2022-08-24T00:41:27;18.90;92.20
22173;DHT22;11252;50.596;17.648;2022-08-24T00:43:57;18.90;92.20
22173;DHT22;11252;50.596;17.648;2022-08-24T00:49:09;18.90;92.20
22173;DHT22;11252;50.596;17.648;2022-08-24T00:51:44;18.90;92.20
22173;DHT22;11252;50.596;17.648;2022-08-24T00:54:16;18.90;92.20
22173;DHT22;11252;50.596;17.648;2022-08-24T00:56:48;18.90;92.20
22173;DHT22;11252;50.596;17.648;2022-08-24T00:59:24;18.90;92.20
22173;DHT22;11252;50.596;17.648;2022-08-24T01:01:56;18.90;92.20
22173;DHT22;11252;50.596;17.648;2022-08-24T01:04:34;18.90;92.20
22173;DHT22;11252;50.596;17.648;2022-08-24T01:07:02;18.90;92.20
22173;DHT22;11252;50.596;17.648;2022-08-24T01:09:30;19.00;92.20
22173;DHT22;11252;50.596;17.648;2022-08-24T01:11:58;19.00;92.20
22173;DHT22;11252;50.596;17.648;2022-08-24T01:14:27;19.00;92.20
22173;DHT22;11252;50.596;17.648;2022-08-24T01:16:55;19.00;92.20
22173;DHT22;11252;50.596;17.648;2022-08-24T01:19:48;19.00;92.20
22173;DHT22;11252;50.596;17.648;2022-08-24T01:24:52;19.00;92.20
22173;DHT22;11252;50.596;17.648;2022-08-24T01:27:21;19.00;92.20
22173;DHT22;11252;50.596;17.648;2022-08-24T01:29:55;19.00;92.20
22173;DHT22;11252;50.596;17.648;2022-08-24T01:32:25;19.00;92.20
22173;DHT22;11252;50.596;17.648;2022-08-24T01:34:55;19.00;92.20
22173;DHT22;11252;50.596;17.648;2022-08-24T01:37:25;19.00;92.20
22173;DHT22;11252;50.596;17.648;2022-08-24T01:39:55;19.00;92.20
22173;DHT22;11252;50.596;17.648;2022-08-24T01:42:25;19.00;92.20
22173;DHT22;11252;50.596;17.648;2022-08-24T01:44:53;19.00;92.20
22173;DHT22;11252;50.596;17.648;2022-08-24T01:47:22;19.00;92.20
22173;DHT22;11252;50.596;17.648;2022-08-24T01:49:49;19.00;92.20
22173;DHT22;11252;50.596;17.648;2022-08-24T01:52:21;19.00;92.20
22173;DHT22;11252;50.596;17.648;2022-08-24T01:54:51;19.00;92.20
22173;DHT22;11252;50.596;17.648;2022-08-24T01:57:19;19.00;92.20
22173;DHT22;11252;50.596;17.648;2022-08-24T01:59:50;19.00;92.20
22173;DHT22;11252;50.596;17.648;2022-08-24T02:02:27;19.00;92.20
22173;DHT22;11252;50.596;17.648;2022-08-24T02:04:56;19.00;92.20
22173;DHT22;11252;50.596;17.648;2022-08-24T02:07:24;19.00;92.20
22173;DHT22;11252;50.596;17.648;2022-08-24T02:09:53;19.00;92.20
22173;DHT22;11252;50.596;17.648;2022-08-24T02:12:21;19.00;92.20
22173;DHT22;11252;50.596;17.648;2022-08-24T02:14:48;19.10;92.20
22173;DHT22;11252;50.596;17.648;2022-08-24T02:17:16;19.10;92.20
22173;DHT22;11252;50.596;17.648;2022-08-24T02:19:44;19.10;92.20
22173;DHT22;11252;50.596;17.648;2022-08-24T02:22:12;19.10;92.20
22173;DHT22;11252;50.596;17.648;2022-08-24T02:24:40;19.00;92.20
22173;DHT22;11252;50.596;17.648;2022-08-24T02:27:08;19.00;92.20
22173;DHT22;11252;50.596;17.648;2022-08-24T02:29:36;19.10;92.20
22173;DHT22;11252;50.596;17.648;2022-08-24T02:32:04;19.00;92.20
22173;DHT22;11252;50.596;17.648;2022-08-24T02:34:33;19.00;92.20
22173;DHT22;11252;50.596;17.648;2022-08-24T02:37:01;19.00;92.20
22173;DHT22;11252;50.596;17.648;2022-08-24T02:39:28;19.10;92.20
22173;DHT22;11252;50.596;17.648;2022-08-24T02:41:56;19.10;92.20
22173;DHT22;11252;50.596;17.648;2022-08-24T02:44:24;19.10;92.20
22173;DHT22;11252;50.596;17.648;2022-08-24T02:46:51;19.10;92.20
22173;DHT22;11252;50.596;17.648;2022-08-24T02:49:19;19.00;92.20
22173;DHT22;11252;50.596;17.648;2022-08-24T02:51:47;19.10;92.20
22173;DHT22;11252;50.596;17.648;2022-08-24T02:54:17;19.00;92.20
22173;DHT22;11252;50.596;17.648;2022-08-24T02:56:45;19.00;92.20
22173;DHT22;11252;50.596;17.648;2022-08-24T02:59:16;19.00;92.20
22173;DHT22;11252;50.596;17.648;2022-08-24T03:01:47;19.00;92.20
22173;DHT22;11252;50.596;17.648;2022-08-24T03:04:16;19.10;92.20
22173;DHT22;11252;50.596;17.648;2022-08-24T03:06:45;19.10;92.20
22173;DHT22;11252;50.596;17.648;2022-08-24T03:09:13;19.10;92.20
22173;DHT22;11252;50.596;17.648;2022-08-24T03:11:41;19.10;92.20
22173;DHT22;11252;50.596;17.648;2022-08-24T03:14:11;19.00;92.20
22173;DHT22;11252;50.596;17.648;2022-08-24T03:16:40;19.10;92.20
22173;DHT22;11252;50.596;17.648;2022-08-24T03:19:08;19.10;92.20
22173;DHT22;11252;50.596;17.648;2022-08-24T03:21:35;19.10;92.20
22173;DHT22;11252;50.596;17.648;2022-08-24T03:24:04;19.10;92.20
22173;DHT22;11252;50.596;17.648;2022-08-24T03:26:32;19.10;92.20
22173;DHT22;11252;50.596;17.648;2022-08-24T03:29:00;19.10;92.20
22173;DHT22;11252;50.596;17.648;2022-08-24T03:31:31;19.10;92.20
22173;DHT22;11252;50.596;17.648;2022-08-24T03:33:59;19.10;92.20
22173;DHT22;11252;50.596;17.648;2022-08-24T03:36:27;19.10;92.20
22173;DHT22;11252;50.596;17.648;2022-08-24T03:38:56;19.10;92.20
22173;DHT22;11252;50.596;17.648;2022-08-24T03:41:24;19.10;92.20
22173;DHT22;11252;50.596;17.648;2022-08-24T03:43:53;19.10;92.20
22173;DHT22;11252;50.596;17.648;2022-08-24T03:46:25;19.10;92.20
22173;DHT22;11252;50.596;17.648;2022-08-24T03:48:58;19.20;92.20
22173;DHT22;11252;50.596;17.648;2022-08-24T03:51:27;19.20;92.20
22173;DHT22;11252;50.596;17.648;2022-08-24T03:53:58;19.20;92.20
22173;DHT22;11252;50.596;17.648;2022-08-24T03:56:26;19.30;92.20
22173;DHT22;11252;50.596;17.648;2022-08-24T03:58:56;19.20;92.20
22173;DHT22;11252;50.596;17.648;2022-08-24T04:01:24;19.20;92.20
22173;DHT22;11252;50.596;17.648;2022-08-24T04:03:52;19.20;92.20
22173;DHT22;11252;50.596;17.648;2022-08-24T04:06:22;19.20;92.20
22173;DHT22;11252;50.596;17.648;2022-08-24T04:08:50;19.10;92.20
22173;DHT22;11252;50.596;17.648;2022-08-24T04:11:21;19.10;92.20
22173;DHT22;11252;50.596;17.648;2022-08-24T04:13:52;19.10;92.20
22173;DHT22;11252;50.596;17.648;2022-08-24T04:16:22;19.10;92.20
22173;DHT22;11252;50.596;17.648;2022-08-24T04:18:50;19.20;92.20
22173;DHT22;11252;50.596;17.648;2022-08-24T04:21:24;19.20;92.20
22173;DHT22;11252;50.596;17.648;2022-08-24T04:23:55;19.20;92.20
22173;DHT22;11252;50.596;17.648;2022-08-24T04:26:25;19.10;92.20
22173;DHT22;11252;50.596;17.648;2022-08-24T04:29:14;19.10;92.20
22173;DHT22;11252;50.596;17.648;2022-08-24T04:31:43;19.10;92.20
22173;DHT22;11252;50.596;17.648;2022-08-24T04:34:14;19.20;92.20
22173;DHT22;11252;50.596;17.648;2022-08-24T04:36:43;19.20;92.20
22173;DHT22;11252;50.596;17.648;2022-08-24T04:39:12;19.20;92.20
22173;DHT22;11252;50.596;17.648;2022-08-24T04:41:41;19.20;92.20
22173;DHT22;11252;50.596;17.648;2022-08-24T04:44:10;19.20;92.20
22173;DHT22;11252;50.596;17.648;2022-08-24T04:46:38;19.20;92.20
22173;DHT22;11252;50.596;17.648;2022-08-24T04:49:06;19.30;92.20
22173;DHT22;11252;50.596;17.648;2022-08-24T04:51:35;19.30;92.20
22173;DHT22;11252;50.596;17.648;2022-08-24T04:54:06;19.30;92.20
22173;DHT22;11252;50.596;17.648;2022-08-24T04:56:41;19.30;92.20
22173;DHT22;11252;50.596;17.648;2022-08-24T04:59:11;19.30;92.20
22173;DHT22;11252;50.596;17.648;2022-08-24T05:01:41;19.30;92.20
22173;DHT22;11252;50.596;17.648;2022-08-24T05:04:11;19.30;92.20
22173;DHT22;11252;50.596;17.648;2022-08-24T05:06:40;19.40;92.20
22173;DHT22;11252;50.596;17.648;2022-08-24T05:09:11;19.40;92.20
22173;DHT22;11252;50.596;17.648;2022-08-24T05:11:42;19.50;92.20
22173;DHT22;11252;50.596;17.648;2022-08-24T05:14:19;19.50;92.20
22173;DHT22;11252;50.596;17.648;2022-08-24T05:16:50;19.50;92.20
22173;DHT22;11252;50.596;17.648;2022-08-24T05:19:19;19.60;92.20
22173;DHT22;11252;50.596;17.648;2022-08-24T05:21:50;19.60;92.20
22173;DHT22;11252;50.596;17.648;2022-08-24T05:24:18;19.60;92.20
22173;DHT22;11252;50.596;17.648;2022-08-24T05:26:46;19.60;92.20
22173;DHT22;11252;50.596;17.648;2022-08-24T05:29:15;19.60;92.20
22173;DHT22;11252;50.596;17.648;2022-08-24T05:31:44;19.60;92.20
22173;DHT22;11252;50.596;17.648;2022-08-24T05:34:13;19.70;92.20
22173;DHT22;11252;50.596;17.648;2022-08-24T05:36:43;19.70;92.20
22173;DHT22;11252;50.596;17.648;2022-08-24T05:39:13;19.70;92.20
22173;DHT22;11252;50.596;17.648;2022-08-24T05:41:43;19.70;92.20
22173;DHT22;11252;50.596;17.648;2022-08-24T05:44:13;19.70;92.20
22173;DHT22;11252;50.596;17.648;2022-08-24T05:46:44;19.80;92.20
22173;DHT22;11252;50.596;17.648;2022-08-24T05:49:15;19.80;92.20
22173;DHT22;11252;50.596;17.648;2022-08-24T05:51:45;19.80;92.20
22173;DHT22;11252;50.596;17.648;2022-08-24T05:54:13;19.80;92.20
22173;DHT22;11252;50.596;17.648;2022-08-24T05:56:42;19.80;92.20
22173;DHT22;11252;50.596;17.648;2022-08-24T05:59:14;19.80;92.20
22173;DHT22;11252;50.596;17.648;2022-08-24T06:01:45;19.90;92.20
22173;DHT22;11252;50.596;17.648;2022-08-24T06:04:13;19.90;92.20
22173;DHT22;11252;50.596;17.648;2022-08-24T06:06:41;19.90;92.20
22173;DHT22;11252;50.596;17.648;2022-08-24T06:09:15;19.90;92.20
22173;DHT22;11252;50.596;17.648;2022-08-24T06:11:44;19.90;92.20
22173;DHT22;11252;50.596;17.648;2022-08-24T06:14:17;19.90;92.20
22173;DHT22;11252;50.596;17.648;2022-08-24T06:16:49;19.90;92.20
22173;DHT22;11252;50.596;17.648;2022-08-24T06:19:24;19.90;92.20
22173;DHT22;11252;50.596;17.648;2022-08-24T06:21:56;19.90;92.20
22173;DHT22;11252;50.596;17.648;2022-08-24T06:24:24;19.90;92.20
22173;DHT22;11252;50.596;17.648;2022-08-24T06:27:13;20.00;92.20
22173;DHT22;11252;50.596;17.648;2022-08-24T06:29:55;20.00;92.20
22173;DHT22;11252;50.596;17.648;2022-08-24T06:32:25;20.00;92.20
22173;DHT22;11252;50.596;17.648;2022-08-24T06:34:57;20.10;92.20
22173;DHT22;11252;50.596;17.648;2022-08-24T06:37:25;20.10;92.20
22173;DHT22;11252;50.596;17.648;2022-08-24T06:39:56;20.10;92.20
22173;DHT22;11252;50.596;17.648;2022-08-24T06:42:24;20.20;92.20
22173;DHT22;11252;50.596;17.648;2022-08-24T06:44:52;20.20;92.20
22173;DHT22;11252;50.596;17.648;2022-08-24T06:47:23;20.20;92.20
22173;DHT22;11252;50.596;17.648;2022-08-24T06:49:51;20.30;92.20
22173;DHT22;11252;50.596;17.648;2022-08-24T06:52:19;20.20;92.20
22173;DHT22;11252;50.596;17.648;2022-08-24T06:54:48;20.20;92.20
22173;DHT22;11252;50.596;17.648;2022-08-24T06:57:18;20.20;92.20
22173;DHT22;11252;50.596;17.648;2022-08-24T06:59:47;20.20;92.20
22173;DHT22;11252;50.596;17.648;2022-08-24T07:02:18;20.20;92.20
22173;DHT22;11252;50.596;17.648;2022-08-24T07:04:47;20.20;92.20
22173;DHT22;11252;50.596;17.648;2022-08-24T07:07:16;20.20;92.20
22173;DHT22;11252;50.596;17.648;2022-08-24T07:09:45;20.20;92.20
22173;DHT22;11252;50.596;17.648;2022-08-24T07:12:14;20.20;92.20
22173;DHT22;11252;50.596;17.648;2022-08-24T07:14:42;20.20;92.20
22173;DHT22;11252;50.596;17.648;2022-08-24T07:17:12;20.30;92.20
22173;DHT22;11252;50.596;17.648;2022-08-24T07:19:39;20.30;92.20
22173;DHT22;11252;50.596;17.648;2022-08-24T07:22:08;20.40;92.20
22173;DHT22;11252;50.596;17.648;2022-08-24T07:24:35;20.40;92.20
22173;DHT22;11252;50.596;17.648;2022-08-24T07:27:04;20.40;92.20
22173;DHT22;11252;50.596;17.648;2022-08-24T07:29:34;20.40;92.20
22173;DHT22;11252;50.596;17.648;2022-08-24T07:32:25;20.40;92.20
22173;DHT22;11252;50.596;17.648;2022-08-24T07:34:59;20.50;92.20
22173;DHT22;11252;50.596;17.648;2022-08-24T07:37:26;20.60;92.20
22173;DHT22;11252;50.596;17.648;2022-08-24T07:40:07;20.60;92.20
22173;DHT22;11252;50.596;17.648;2022-08-24T07:42:35;20.70;92.20
22173;DHT22;11252;50.596;17.648;2022-08-24T07:45:03;20.70;92.20
22173;DHT22;11252;50.596;17.648;2022-08-24T07:47:34;20.70;92.20
22173;DHT22;11252;50.596;17.648;2022-08-24T07:50:13;20.70;92.20
22173;DHT22;11252;50.596;17.648;2022-08-24T07:52:42;20.80;92.20
22173;DHT22;11252;50.596;17.648;2022-08-24T07:55:12;20.80;92.20
22173;DHT22;11252;50.596;17.648;2022-08-24T07:57:40;20.80;92.20
22173;DHT22;11252;50.596;17.648;2022-08-24T08:00:13;20.80;92.20
22173;DHT22;11252;50.596;17.648;2022-08-24T08:02:42;20.80;92.20
22173;DHT22;11252;50.596;17.648;2022-08-24T08:05:18;20.80;92.20
22173;DHT22;11252;50.596;17.648;2022-08-24T08:07:46;20.90;92.20
22173;DHT22;11252;50.596;17.648;2022-08-24T08:10:18;20.90;92.20
22173;DHT22;11252;50.596;17.648;2022-08-24T08:12:46;20.90;92.20
22173;DHT22;11252;50.596;17.648;2022-08-24T08:15:14;20.90;92.20
22173;DHT22;11252;50.596;17.648;2022-08-24T08:17:41;20.90;92.20
22173;DHT22;11252;50.596;17.648;2022-08-24T08:20:10;20.90;92.20
22173;DHT22;11252;50.596;17.648;2022-08-24T08:22:40;20.90;92.20
22173;DHT22;11252;50.596;17.648;2022-08-24T08:25:27;20.90;92.20
22173;DHT22;11252;50.596;17.648;2022-08-24T08:27:56;21.00;92.20
22173;DHT22;11252;50.596;17.648;2022-08-24T08:30:38;21.00;92.20
22173;DHT22;11252;50.596;17.648;2022-08-24T08:33:09;21.00;92.20
22173;DHT22;11252;50.596;17.648;2022-08-24T08:35:36;21.10;92.20
22173;DHT22;11252;50.596;17.648;2022-08-24T08:38:06;21.10;92.20
22173;DHT22;11252;50.596;17.648;2022-08-24T08:40:46;21.20;92.20
22173;DHT22;11252;50.596;17.648;2022-08-24T08:43:47;21.20;92.20
22173;DHT22;11252;50.596;17.648;2022-08-24T08:57:38;21.30;92.20
22173;DHT22;11252;50.596;17.648;2022-08-24T09:00:23;21.40;92.20
22173;DHT22;11252;50.596;17.648;2022-08-24T09:04:16;21.50;92.20
22173;DHT22;11252;50.596;17.648;2022-08-24T09:06:41;21.70;92.20
22173;DHT22;11252;50.596;17.648;2022-08-24T09:11:57;21.90;92.20
22173;DHT22;11252;50.596;17.648;2022-08-24T09:20:15;22.10;92.20
22173;DHT22;11252;50.596;17.648;2022-08-24T09:22:46;22.10;92.20
22173;DHT22;11252;50.596;17.648;2022-08-24T09:26:24;22.10;92.20
22173;DHT22;11252;50.596;17.648;2022-08-24T09:31:09;22.20;92.20
22173;DHT22;11252;50.596;17.648;2022-08-24T09:36:31;22.20;92.20
22173;DHT22;11252;50.596;17.648;2022-08-24T09:42:27;22.30;92.20
22173;DHT22;11252;50.596;17.648;2022-08-24T09:56:52;22.60;92.20
22173;DHT22;11252;50.596;17.648;2022-08-24T10:00:05;22.60;92.20
22173;DHT22;11252;50.596;17.648;2022-08-24T10:02:41;22.60;92.20
22173;DHT22;11252;50.596;17.648;2022-08-24T10:09:37;22.60;92.20
22173;DHT22;11252;50.596;17.648;2022-08-24T10:12:14;22.60;92.20
22173;DHT22;11252;50.596;17.648;2022-08-24T10:20:56;22.80;92.20
22173;DHT22;11252;50.596;17.648;2022-08-24T10:23:49;22.90;92.20
22173;DHT22;11252;50.596;17.648;2022-08-24T10:29:31;22.80;92.20
22173;DHT22;11252;50.596;17.648;2022-08-24T10:35:21;22.80;92.20
22173;DHT22;11252;50.596;17.648;2022-08-24T10:44:32;23.00;92.20
22173;DHT22;11252;50.596;17.648;2022-08-24T10:46:38;23.10;92.20
22173;DHT22;11252;50.596;17.648;2022-08-24T10:52:40;23.20;92.20
22173;DHT22;11252;50.596;17.648;2022-08-24T10:55:26;23.30;92.20
22173;DHT22;11252;50.596;17.648;2022-08-24T11:00:33;23.20;92.20
22173;DHT22;11252;50.596;17.648;2022-08-24T11:03:14;23.20;92.20
22173;DHT22;11252;50.596;17.648;2022-08-24T11:05:47;23.30;92.20
22173;DHT22;11252;50.596;17.648;2022-08-24T11:08:22;23.40;92.20
22173;DHT22;11252;50.596;17.648;2022-08-24T11:11:13;23.50;92.20
22173;DHT22;11252;50.596;17.648;2022-08-24T11:13:52;23.50;92.20
22173;DHT22;11252;50.596;17.648;2022-08-24T11:16:46;23.70;92.20
22173;DHT22;11252;50.596;17.648;2022-08-24T11:19:30;23.60;92.20
22173;DHT22;11252;50.596;17.648;2022-08-24T11:22:05;23.70;92.20
22173;DHT22;11252;50.596;17.648;2022-08-24T11:24:44;23.80;92.20
22173;DHT22;11252;50.596;17.648;2022-08-24T11:32:45;23.90;92.20
22173;DHT22;11252;50.596;17.648;2022-08-24T11:37:48;24.10;92.20
22173;DHT22;11252;50.596;17.648;2022-08-24T11:40:17;24.20;92.20
22173;DHT22;11252;50.596;17.648;2022-08-24T11:51:42;24.30;92.20
22173;DHT22;11252;50.596;17.648;2022-08-24T12:00:17;25.20;92.20
22173;DHT22;11252;50.596;17.648;2022-08-24T12:05:43;25.40;92.20
22173;DHT22;11252;50.596;17.648;2022-08-24T12:19:13;25.60;92.20
22173;DHT22;11252;50.596;17.648;2022-08-24T12:21:46;25.80;92.20
22173;DHT22;11252;50.596;17.648;2022-08-24T12:24:28;25.80;92.20
22173;DHT22;11252;50.596;17.648;2022-08-24T12:27:02;25.60;92.20
22173;DHT22;11252;50.596;17.648;2022-08-24T12:29:42;25.50;92.20
22173;DHT22;11252;50.596;17.648;2022-08-24T12:32:20;25.30;92.20
22173;DHT22;11252;50.596;17.648;2022-08-24T12:34:59;25.10;92.20
22173;DHT22;11252;50.596;17.648;2022-08-24T12:37:51;25.00;92.20
22173;DHT22;11252;50.596;17.648;2022-08-24T12:43:13;24.90;92.20
22173;DHT22;11252;50.596;17.648;2022-08-24T12:45:40;24.80;92.20
22173;DHT22;11252;50.596;17.648;2022-08-24T12:56:33;24.70;92.20
22173;DHT22;11252;50.596;17.648;2022-08-24T13:07:26;25.00;92.20
22173;DHT22;11252;50.596;17.648;2022-08-24T13:25:56;25.60;92.20
22173;DHT22;11252;50.596;17.648;2022-08-24T13:34:34;25.80;92.20
22173;DHT22;11252;50.596;17.648;2022-08-24T13:37:13;25.70;92.20
22173;DHT22;11252;50.596;17.648;2022-08-24T13:40:03;25.80;92.20
22173;DHT22;11252;50.596;17.648;2022-08-24T13:45:53;25.70;92.20
22173;DHT22;11252;50.596;17.648;2022-08-24T13:51:19;25.50;92.20
22173;DHT22;11252;50.596;17.648;2022-08-24T13:54:17;25.40;92.20
22173;DHT22;11252;50.596;17.648;2022-08-24T14:14:09;25.20;92.20
22173;DHT22;11252;50.596;17.648;2022-08-24T14:20:13;25.20;92.20
22173;DHT22;11252;50.596;17.648;2022-08-24T14:25:27;25.30;92.20
22173;DHT22;11252;50.596;17.648;2022-08-24T14:41:00;25.10;92.20
22173;DHT22;11252;50.596;17.648;2022-08-24T14:44:07;25.10;92.20
22173;DHT22;11252;50.596;17.648;2022-08-24T14:49:58;25.10;92.20
22173;DHT22;11252;50.596;17.648;2022-08-24T14:58:17;25.20;92.20
22173;DHT22;11252;50.596;17.648;2022-08-24T15:01:02;25.20;92.20
22173;DHT22;11252;50.596;17.648;2022-08-24T15:06:46;25.10;92.20
22173;DHT22;11252;50.596;17.648;2022-08-24T15:09:32;25.20;92.20
22173;DHT22;11252;50.596;17.648;2022-08-24T15:15:21;25.60;92.20
22173;DHT22;11252;50.596;17.648;2022-08-24T15:17:56;25.80;92.20
22173;DHT22;11252;50.596;17.648;2022-08-24T15:20:42;25.80;92.20
22173;DHT22;11252;50.596;17.648;2022-08-24T15:26:48;25.70;92.20
22173;DHT22;11252;50.596;17.648;2022-08-24T15:29:20;25.40;92.20
22173;DHT22;11252;50.596;17.648;2022-08-24T15:31:56;25.20;92.20
22173;DHT22;11252;50.596;17.648;2022-08-24T15:34:40;25.00;92.20
22173;DHT22;11252;50.596;17.648;2022-08-24T15:37:09;25.00;92.20
22173;DHT22;11252;50.596;17.648;2022-08-24T15:39:36;24.90;92.20
22173;DHT22;11252;50.596;17.648;2022-08-24T15:42:09;24.90;92.20
22173;DHT22;11252;50.596;17.648;2022-08-24T15:44:44;24.80;92.20
22173;DHT22;11252;50.596;17.648;2022-08-24T15:47:19;24.80;92.20
22173;DHT22;11252;50.596;17.648;2022-08-24T15:49:59;24.90;92.20
22173;DHT22;11252;50.596;17.648;2022-08-24T15:58:24;24.70;92.20
22173;DHT22;11252;50.596;17.648;2022-08-24T16:01:17;24.70;92.20
22173;DHT22;11252;50.596;17.648;2022-08-24T16:04:13;24.70;92.20
22173;DHT22;11252;50.596;17.648;2022-08-24T16:06:45;24.70;92.20
22173;DHT22;11252;50.596;17.648;2022-08-24T16:14:43;24.50;92.20
22173;DHT22;11252;50.596;17.648;2022-08-24T16:20:10;24.40;92.20
22173;DHT22;11252;50.596;17.648;2022-08-24T16:22:47;24.40;92.20
22173;DHT22;11252;50.596;17.648;2022-08-24T16:28:10;24.30;92.20
22173;DHT22;11252;50.596;17.648;2022-08-24T16:30:46;24.30;92.20
22173;DHT22;11252;50.596;17.648;2022-08-24T16:36:07;24.20;92.20
22173;DHT22;11252;50.596;17.648;2022-08-24T16:38:37;24.20;92.20
22173;DHT22;11252;50.596;17.648;2022-08-24T16:41:11;24.20;92.20
22173;DHT22;11252;50.596;17.648;2022-08-24T16:43:40;24.20;92.20
22173;DHT22;11252;50.596;17.648;2022-08-24T16:46:10;24.20;92.20
22173;DHT22;11252;50.596;17.648;2022-08-24T16:48:38;24.20;92.20
22173;DHT22;11252;50.596;17.648;2022-08-24T16:51:06;24.20;92.20
22173;DHT22;11252;50.596;17.648;2022-08-24T16:53:34;24.10;92.20
22173;DHT22;11252;50.596;17.648;2022-08-24T16:56:02;24.10;92.20
22173;DHT22;11252;50.596;17.648;2022-08-24T16:58:32;24.00;92.20
22173;DHT22;11252;50.596;17.648;2022-08-24T17:01:00;24.00;92.20
22173;DHT22;11252;50.596;17.648;2022-08-24T17:03:28;23.90;92.20
22173;DHT22;11252;50.596;17.648;2022-08-24T17:05:57;23.80;92.20
22173;DHT22;11252;50.596;17.648;2022-08-24T17:08:26;23.70;92.20
22173;DHT22;11252;50.596;17.648;2022-08-24T17:10:54;23.70;92.20
22173;DHT22;11252;50.596;17.648;2022-08-24T17:13:22;23.60;92.20
22173;DHT22;11252;50.596;17.648;2022-08-24T17:16:10;23.60;92.20
22173;DHT22;11252;50.596;17.648;2022-08-24T17:18:42;23.50;92.20
22173;DHT22;11252;50.596;17.648;2022-08-24T17:21:10;23.40;92.20
22173;DHT22;11252;50.596;17.648;2022-08-24T17:23:39;23.40;92.20
22173;DHT22;11252;50.596;17.648;2022-08-24T17:26:10;23.30;92.20
22173;DHT22;11252;50.596;17.648;2022-08-24T17:28:47;23.20;92.20
22173;DHT22;11252;50.596;17.648;2022-08-24T17:31:15;23.20;92.20
22173;DHT22;11252;50.596;17.648;2022-08-24T17:33:42;23.20;92.20
22173;DHT22;11252;50.596;17.648;2022-08-24T17:36:10;23.10;92.20
22173;DHT22;11252;50.596;17.648;2022-08-24T17:38:47;23.10;92.20
22173;DHT22;11252;50.596;17.648;2022-08-24T17:41:22;23.00;92.20
22173;DHT22;11252;50.596;17.648;2022-08-24T17:43:50;23.00;92.20
22173;DHT22;11252;50.596;17.648;2022-08-24T17:46:18;22.90;92.20
22173;DHT22;11252;50.596;17.648;2022-08-24T17:48:46;22.90;92.20
22173;DHT22;11252;50.596;17.648;2022-08-24T17:51:14;22.80;92.20
22173;DHT22;11252;50.596;17.648;2022-08-24T17:53:42;22.80;92.20
22173;DHT22;11252;50.596;17.648;2022-08-24T17:56:10;22.70;92.20
22173;DHT22;11252;50.596;17.648;2022-08-24T17:58:42;22.70;92.20
22173;DHT22;11252;50.596;17.648;2022-08-24T18:01:28;22.70;92.20
22173;DHT22;11252;50.596;17.648;2022-08-24T18:03:56;22.60;92.20
22173;DHT22;11252;50.596;17.648;2022-08-24T18:06:26;22.60;92.20
22173;DHT22;11252;50.596;17.648;2022-08-24T18:08:54;22.60;92.20
22173;DHT22;11252;50.596;17.648;2022-08-24T18:11:25;22.60;92.20
22173;DHT22;11252;50.596;17.648;2022-08-24T18:13:52;22.50;92.20
22173;DHT22;11252;50.596;17.648;2022-08-24T18:16:23;22.50;92.20
22173;DHT22;11252;50.596;17.648;2022-08-24T18:18:51;22.40;92.20
22173;DHT22;11252;50.596;17.648;2022-08-24T18:21:20;22.40;92.20
22173;DHT22;11252;50.596;17.648;2022-08-24T18:23:49;22.40;92.20
22173;DHT22;11252;50.596;17.648;2022-08-24T18:26:23;22.40;92.20
22173;DHT22;11252;50.596;17.648;2022-08-24T18:28:54;22.30;92.20
22173;DHT22;11252;50.596;17.648;2022-08-24T18:31:26;22.30;92.20
22173;DHT22;11252;50.596;17.648;2022-08-24T18:33:54;22.20;92.20
22173;DHT22;11252;50.596;17.648;2022-08-24T18:36:21;22.20;92.20
22173;DHT22;11252;50.596;17.648;2022-08-24T18:38:49;22.20;92.20
22173;DHT22;11252;50.596;17.648;2022-08-24T18:41:16;22.10;92.20
22173;DHT22;11252;50.596;17.648;2022-08-24T18:43:43;22.10;92.20
22173;DHT22;11252;50.596;17.648;2022-08-24T18:46:11;22.00;92.20
22173;DHT22;11252;50.596;17.648;2022-08-24T18:48:38;22.00;92.20
22173;DHT22;11252;50.596;17.648;2022-08-24T18:51:06;22.00;92.20
22173;DHT22;11252;50.596;17.648;2022-08-24T18:53:33;21.90;92.20
22173;DHT22;11252;50.596;17.648;2022-08-24T18:56:04;21.90;92.20
22173;DHT22;11252;50.596;17.648;2022-08-24T18:58:38;21.90;92.20
22173;DHT22;11252;50.596;17.648;2022-08-24T19:01:06;21.80;92.20
22173;DHT22;11252;50.596;17.648;2022-08-24T19:03:34;21.80;92.20
22173;DHT22;11252;50.596;17.648;2022-08-24T19:06:02;21.70;92.20
22173;DHT22;11252;50.596;17.648;2022-08-24T19:08:29;21.70;92.20
22173;DHT22;11252;50.596;17.648;2022-08-24T19:10:56;21.70;92.20
22173;DHT22;11252;50.596;17.648;2022-08-24T19:13:24;21.70;92.20
22173;DHT22;11252;50.596;17.648;2022-08-24T19:15:52;21.70;92.20
22173;DHT22;11252;50.596;17.648;2022-08-24T19:18:20;21.60;92.20
22173;DHT22;11252;50.596;17.648;2022-08-24T19:20:50;21.60;92.20
22173;DHT22;11252;50.596;17.648;2022-08-24T19:23:25;21.60;92.20
22173;DHT22;11252;50.596;17.648;2022-08-24T19:25:54;21.50;92.20
22173;DHT22;11252;50.596;17.648;2022-08-24T19:28:23;21.50;92.20
22173;DHT22;11252;50.596;17.648;2022-08-24T19:30:57;21.50;92.20
22173;DHT22;11252;50.596;17.648;2022-08-24T19:33:27;21.50;92.20
22173;DHT22;11252;50.596;17.648;2022-08-24T19:35:55;21.50;92.20
22173;DHT22;11252;50.596;17.648;2022-08-24T19:38:23;21.50;92.20
22173;DHT22;11252;50.596;17.648;2022-08-24T19:40:53;21.50;92.20